sensor_id;sensor_type;location;lat;lon;timestamp;pressure;altitude;pressure_sealevel;temperature;humidity
69980;BME280;57318;56.232;43.944;2024-01-11T00:01:03;97914.53;;;-15.27;70.28
69980;BME280;57318;56.232;43.944;2024-01-11T00:03:29;97906.06;;;-15.19;70.32
69980;BME280;57318;56.232;43.944;2024-01-11T00:05:55;97898.41;;;-15.13;70.39
69980;BME280;57318;56.232;43.944;2024-01-11T00:08:21;97895.84;;;-15.10;70.10
69980;BME280;57318;56.232;43.944;2024-01-11T00:10:46;97885.63;;;-15.07;69.88
69980;BME280;57318;56.232;43.944;2024-01-11T00:13:12;97883.94;;;-15.05;69.82
69980;BME280;57318;56.232;43.944;2024-01-11T00:15:38;97872.03;;;-15.03;69.31
69980;BME280;57318;56.232;43.944;2024-01-11T00:18:04;97864.38;;;-15.01;69.36
69980;BME280;57318;56.232;43.944;2024-01-11T00:20:29;97861.81;;;-15.01;69.44
69980;BME280;57318;56.232;43.944;2024-01-11T00:22:55;97837.19;;;-14.99;69.63
69980;BME280;57318;56.232;43.944;2024-01-11T00:25:21;97817.66;;;-14.99;69.24
69980;BME280;57318;56.232;43.944;2024-01-11T00:27:46;97813.41;;;-15.01;68.89
69980;BME280;57318;56.232;43.944;2024-01-11T00:30:12;97804.09;;;-15.04;69.00
69980;BME280;57318;56.232;43.944;2024-01-11T00:32:38;97792.19;;;-15.02;68.95
69980;BME280;57318;56.232;43.944;2024-01-11T00:35:03;97769.25;;;-15.07;68.81
69980;BME280;57318;56.232;43.944;2024-01-11T00:37:30;97788.81;;;-15.07;69.57
69980;BME280;57318;56.232;43.944;2024-01-11T00:39:55;97765.88;;;-15.09;69.26
69980;BME280;57318;56.232;43.944;2024-01-11T00:42:21;97757.34;;;-15.06;69.39
69980;BME280;57318;56.232;43.944;2024-01-11T00:44:47;97759.06;;;-15.08;69.38
69980;BME280;57318;56.232;43.944;2024-01-11T00:47:12;97757.38;;;-15.08;69.44
69980;BME280;57318;56.232;43.944;2024-01-11T00:49:38;97707.25;;;-15.04;69.45
69980;BME280;57318;56.232;43.944;2024-01-11T00:52:04;97722.53;;;-15.01;69.27
69980;BME280;57318;56.232;43.944;2024-01-11T00:54:30;97709.72;;;-14.96;69.56
69980;BME280;57318;56.232;43.944;2024-01-11T00:56:56;97710.56;;;-14.93;69.32
69980;BME280;57318;56.232;43.944;2024-01-11T00:59:22;97672.31;;;-14.90;69.18
69980;BME280;57318;56.232;43.944;2024-01-11T01:01:48;97673.16;;;-14.87;69.35
69980;BME280;57318;56.232;43.944;2024-01-11T01:04:14;97645.94;;;-14.85;68.89
69980;BME280;57318;56.232;43.944;2024-01-11T01:06:41;97630.66;;;-14.85;69.15
69980;BME280;57318;56.232;43.944;2024-01-11T01:09:07;97613.66;;;-14.83;69.60
69980;BME280;57318;56.232;43.944;2024-01-11T01:11:32;97620.44;;;-14.84;69.99
69980;BME280;57318;56.232;43.944;2024-01-11T01:13:58;97626.41;;;-14.83;70.24
69980;BME280;57318;56.232;43.944;2024-01-11T01:16:24;97595.81;;;-14.82;69.37
69980;BME280;57318;56.232;43.944;2024-01-11T01:18:49;97591.53;;;-14.81;69.61
69980;BME280;57318;56.232;43.944;2024-01-11T01:21:15;97590.69;;;-14.80;69.71
69980;BME280;57318;56.232;43.944;2024-01-11T01:23:41;97600.88;;;-14.79;69.80
69980;BME280;57318;56.232;43.944;2024-01-11T01:26:07;97570.28;;;-14.79;68.98
69980;BME280;57318;56.232;43.944;2024-01-11T01:28:33;97550.72;;;-14.78;69.62
69980;BME280;57318;56.232;43.944;2024-01-11T01:30:58;97524.38;;;-14.77;69.23
69980;BME280;57318;56.232;43.944;2024-01-11T01:33:24;97524.38;;;-14.76;69.29
69980;BME280;57318;56.232;43.944;2024-01-11T01:35:50;97523.47;;;-14.73;69.36
69980;BME280;57318;56.232;43.944;2024-01-11T01:38:15;97507.31;;;-14.71;68.57
69980;BME280;57318;56.232;43.944;2024-01-11T01:40:43;97473.25;;;-14.65;69.26
69980;BME280;57318;56.232;43.944;2024-01-11T01:43:10;97503.78;;;-14.60;68.59
69980;BME280;57318;56.232;43.944;2024-01-11T01:45:35;97471.44;;;-14.58;68.70
69980;BME280;57318;56.232;43.944;2024-01-11T01:48:02;97455.25;;;-14.56;68.73
69980;BME280;57318;56.232;43.944;2024-01-11T01:50:29;97461.19;;;-14.52;68.70
69980;BME280;57318;56.232;43.944;2024-01-11T01:52:56;97456.88;;;-14.48;68.58
69980;BME280;57318;56.232;43.944;2024-01-11T01:55:22;97439.00;;;-14.47;69.04
69980;BME280;57318;56.232;43.944;2024-01-11T01:57:49;97435.66;;;-14.49;68.84
69980;BME280;57318;56.232;43.944;2024-01-11T02:00:17;97422.06;;;-14.51;69.17
69980;BME280;57318;56.232;43.944;2024-01-11T02:02:44;97400.84;;;-14.55;69.69
69980;BME280;57318;56.232;43.944;2024-01-11T02:05:12;97387.25;;;-14.54;69.88
69980;BME280;57318;56.232;43.944;2024-01-11T02:07:41;97392.31;;;-14.52;69.82
69980;BME280;57318;56.232;43.944;2024-01-11T02:10:08;97369.38;;;-14.52;70.20
69980;BME280;57318;56.232;43.944;2024-01-11T02:12:37;97372.78;;;-14.53;69.98
69980;BME280;57318;56.232;43.944;2024-01-11T02:15:04;97354.09;;;-14.54;70.07
69980;BME280;57318;56.232;43.944;2024-01-11T02:17:35;97338.78;;;-14.54;70.48
69980;BME280;57318;56.232;43.944;2024-01-11T02:20:01;97332.00;;;-14.55;70.76
69980;BME280;57318;56.232;43.944;2024-01-11T02:22:35;97332.00;;;-14.55;71.05
69980;BME280;57318;56.232;43.944;2024-01-11T02:25:01;97307.41;;;-14.59;71.30
69980;BME280;57318;56.232;43.944;2024-01-11T02:27:27;97295.50;;;-14.57;71.46
69980;BME280;57318;56.232;43.944;2024-01-11T02:29:53;97300.63;;;-14.58;72.12
69980;BME280;57318;56.232;43.944;2024-01-11T02:32:19;97274.31;;;-14.60;72.21
69980;BME280;57318;56.232;43.944;2024-01-11T02:34:45;97248.81;;;-14.62;73.02
69980;BME280;57318;56.232;43.944;2024-01-11T02:37:12;97233.56;;;-14.63;72.84
69980;BME280;57318;56.232;43.944;2024-01-11T02:39:38;97218.28;;;-14.65;73.53
69980;BME280;57318;56.232;43.944;2024-01-11T02:42:04;97223.34;;;-14.62;73.82
69980;BME280;57318;56.232;43.944;2024-01-11T02:44:30;97219.94;;;-14.61;74.01
69980;BME280;57318;56.232;43.944;2024-01-11T02:46:56;97183.38;;;-14.60;74.20
69980;BME280;57318;56.232;43.944;2024-01-11T02:49:21;97183.38;;;-14.60;74.53
69980;BME280;57318;56.232;43.944;2024-01-11T02:51:47;97163.84;;;-14.61;74.90
69980;BME280;57318;56.232;43.944;2024-01-11T02:54:13;97138.38;;;-14.64;74.73
69980;BME280;57318;56.232;43.944;2024-01-11T02:56:40;97140.94;;;-14.64;75.34
69980;BME280;57318;56.232;43.944;2024-01-11T02:59:05;97123.09;;;-14.64;75.43
69980;BME280;57318;56.232;43.944;2024-01-11T03:01:31;97110.34;;;-14.64;75.58
69980;BME280;57318;56.232;43.944;2024-01-11T03:03:58;97089.13;;;-14.64;75.80
69980;BME280;57318;56.232;43.944;2024-01-11T03:06:23;97095.06;;;-14.64;75.87
69980;BME280;57318;56.232;43.944;2024-01-11T03:08:49;97067.81;;;-14.62;76.14
69980;BME280;57318;56.232;43.944;2024-01-11T03:11:15;97066.97;;;-14.62;76.11
69980;BME280;57318;56.232;43.944;2024-01-11T03:13:43;97031.16;;;-14.58;76.04
69980;BME280;57318;56.232;43.944;2024-01-11T03:16:09;97027.84;;;-14.60;76.37
69980;BME280;57318;56.232;43.944;2024-01-11T03:18:34;97038.84;;;-14.59;76.35
69980;BME280;57318;56.232;43.944;2024-01-11T03:21:00;97020.97;;;-14.58;76.67
69980;BME280;57318;56.232;43.944;2024-01-11T03:23:26;97002.22;;;-14.55;76.64
69980;BME280;57318;56.232;43.944;2024-01-11T03:25:52;97006.47;;;-14.56;76.93
69980;BME280;57318;56.232;43.944;2024-01-11T03:28:17;96980.97;;;-14.56;77.35
69980;BME280;57318;56.232;43.944;2024-01-11T03:30:43;96974.97;;;-14.52;77.83
69980;BME280;57318;56.232;43.944;2024-01-11T03:33:09;96962.19;;;-14.52;78.10
69980;BME280;57318;56.232;43.944;2024-01-11T03:35:34;96957.06;;;-14.50;78.37
69980;BME280;57318;56.232;43.944;2024-01-11T03:38:00;96952.78;;;-14.48;78.29
69980;BME280;57318;56.232;43.944;2024-01-11T03:40:26;96938.34;;;-14.47;78.36
69980;BME280;57318;56.232;43.944;2024-01-11T03:42:52;96900.06;;;-14.46;78.40
69980;BME280;57318;56.232;43.944;2024-01-11T03:45:18;96900.06;;;-14.46;78.92
69980;BME280;57318;56.232;43.944;2024-01-11T03:47:47;96884.72;;;-14.44;79.04
69980;BME280;57318;56.232;43.944;2024-01-11T03:50:13;96869.34;;;-14.41;79.32
69980;BME280;57318;56.232;43.944;2024-01-11T03:52:39;96851.41;;;-14.38;79.15
69980;BME280;57318;56.232;43.944;2024-01-11T03:55:05;96863.25;;;-14.36;79.35
69980;BME280;57318;56.232;43.944;2024-01-11T03:57:31;96841.00;;;-14.29;79.35
69980;BME280;57318;56.232;43.944;2024-01-11T03:59:56;96837.53;;;-14.26;79.67
69980;BME280;57318;56.232;43.944;2024-01-11T04:02:25;96829.00;;;-14.24;79.56
69980;BME280;57318;56.232;43.944;2024-01-11T04:04:51;96818.72;;;-14.21;79.46
69980;BME280;57318;56.232;43.944;2024-01-11T04:07:16;96796.53;;;-14.19;79.70
69980;BME280;57318;56.232;43.944;2024-01-11T04:09:43;96783.78;;;-14.19;79.30
69980;BME280;57318;56.232;43.944;2024-01-11T04:12:09;96789.69;;;-14.17;79.77
69980;BME280;57318;56.232;43.944;2024-01-11T04:14:39;96806.59;;;-14.12;80.12
69980;BME280;57318;56.232;43.944;2024-01-11T04:17:08;96823.56;;;-14.11;79.96
69980;BME280;57318;56.232;43.944;2024-01-11T04:19:33;96800.59;;;-14.11;79.75
69980;BME280;57318;56.232;43.944;2024-01-11T04:21:59;96757.97;;;-14.06;79.83
69980;BME280;57318;56.232;43.944;2024-01-11T04:24:25;96785.09;;;-14.04;79.80
69980;BME280;57318;56.232;43.944;2024-01-11T04:26:52;96791.03;;;-14.02;80.30
69980;BME280;57318;56.232;43.944;2024-01-11T04:29:17;96765.56;;;-14.03;80.05
69980;BME280;57318;56.232;43.944;2024-01-11T04:31:44;96769.72;;;-14.01;80.34
69980;BME280;57318;56.232;43.944;2024-01-11T04:34:10;96750.91;;;-13.96;80.51
69980;BME280;57318;56.232;43.944;2024-01-11T04:36:39;96733.91;;;-13.98;80.50
69980;BME280;57318;56.232;43.944;2024-01-11T04:39:05;96728.72;;;-13.94;80.44
69980;BME280;57318;56.232;43.944;2024-01-11T04:41:35;96692.13;;;-13.93;80.68
69980;BME280;57318;56.232;43.944;2024-01-11T04:44:02;96719.34;;;-13.92;80.71
69980;BME280;57318;56.232;43.944;2024-01-11T04:46:28;96712.50;;;-13.92;80.77
69980;BME280;57318;56.232;43.944;2024-01-11T04:48:54;96691.19;;;-13.89;80.77
69980;BME280;57318;56.232;43.944;2024-01-11T04:51:20;96710.59;;;-13.84;80.89
69980;BME280;57318;56.232;43.944;2024-01-11T04:53:46;96697.75;;;-13.81;80.94
69980;BME280;57318;56.232;43.944;2024-01-11T04:56:12;96683.22;;;-13.78;81.28
69980;BME280;57318;56.232;43.944;2024-01-11T04:58:43;96687.44;;;-13.77;81.12
69980;BME280;57318;56.232;43.944;2024-01-11T05:01:16;96672.03;;;-13.74;81.15
69980;BME280;57318;56.232;43.944;2024-01-11T05:03:43;96660.97;;;-13.73;80.90
69980;BME280;57318;56.232;43.944;2024-01-11T05:06:18;96672.88;;;-13.74;81.06
69980;BME280;57318;56.232;43.944;2024-01-11T05:08:45;96652.28;;;-13.68;81.26
69980;BME280;57318;56.232;43.944;2024-01-11T05:11:24;96621.59;;;-13.66;81.34
69980;BME280;57318;56.232;43.944;2024-01-11T05:13:51;96614.75;;;-13.64;81.09
69980;BME280;57318;56.232;43.944;2024-01-11T05:16:22;96612.00;;;-13.58;81.21
69980;BME280;57318;56.232;43.944;2024-01-11T05:18:49;96619.69;;;-13.58;80.94
69980;BME280;57318;56.232;43.944;2024-01-11T05:21:14;96605.91;;;-13.54;81.00
69980;BME280;57318;56.232;43.944;2024-01-11T05:23:43;96624.56;;;-13.52;81.01
69980;BME280;57318;56.232;43.944;2024-01-11T05:26:09;96597.38;;;-13.53;80.84
69980;BME280;57318;56.232;43.944;2024-01-11T05:28:36;96578.50;;;-13.49;81.06
69980;BME280;57318;56.232;43.944;2024-01-11T05:31:06;96589.59;;;-13.48;80.81
69980;BME280;57318;56.232;43.944;2024-01-11T05:33:33;96556.38;;;-13.48;80.58
69980;BME280;57318;56.232;43.944;2024-01-11T05:35:58;96565.69;;;-13.47;80.60
69980;BME280;57318;56.232;43.944;2024-01-11T05:38:24;96562.41;;;-13.51;80.59
69980;BME280;57318;56.232;43.944;2024-01-11T05:40:50;96532.69;;;-13.53;80.33
69980;BME280;57318;56.232;43.944;2024-01-11T05:43:15;96544.56;;;-13.52;80.14
69980;BME280;57318;56.232;43.944;2024-01-11T05:45:41;96516.50;;;-13.52;80.39
69980;BME280;57318;56.232;43.944;2024-01-11T05:48:07;96520.78;;;-13.53;80.39
69980;BME280;57318;56.232;43.944;2024-01-11T05:50:32;96523.38;;;-13.54;80.16
69980;BME280;57318;56.232;43.944;2024-01-11T05:52:58;96507.16;;;-13.53;80.25
69980;BME280;57318;56.232;43.944;2024-01-11T05:55:24;96496.16;;;-13.55;80.27
69980;BME280;57318;56.232;43.944;2024-01-11T05:57:49;96491.00;;;-13.54;80.32
69980;BME280;57318;56.232;43.944;2024-01-11T06:00:15;96465.56;;;-13.57;80.38
69980;BME280;57318;56.232;43.944;2024-01-11T06:02:41;96470.53;;;-13.52;80.49
69980;BME280;57318;56.232;43.944;2024-01-11T06:05:10;96454.47;;;-13.56;80.14
69980;BME280;57318;56.232;43.944;2024-01-11T06:07:37;96451.78;;;-13.51;80.02
69980;BME280;57318;56.232;43.944;2024-01-11T06:10:04;96452.59;;;-13.51;80.27
69980;BME280;57318;56.232;43.944;2024-01-11T06:12:32;96432.13;;;-13.49;80.48
69980;BME280;57318;56.232;43.944;2024-01-11T06:14:58;96425.06;;;-13.43;80.42
69980;BME280;57318;56.232;43.944;2024-01-11T06:17:24;96427.53;;;-13.39;80.08
69980;BME280;57318;56.232;43.944;2024-01-11T06:19:50;96430.88;;;-13.37;80.17
69980;BME280;57318;56.232;43.944;2024-01-11T06:22:16;96396.78;;;-13.36;80.11
69980;BME280;57318;56.232;43.944;2024-01-11T06:24:41;96374.38;;;-13.30;79.96
69980;BME280;57318;56.232;43.944;2024-01-11T06:27:07;96404.91;;;-13.27;79.91
69980;BME280;57318;56.232;43.944;2024-01-11T06:29:33;96384.28;;;-13.20;79.97
69980;BME280;57318;56.232;43.944;2024-01-11T06:31:58;96385.03;;;-13.17;79.62
69980;BME280;57318;56.232;43.944;2024-01-11T06:34:24;96386.72;;;-13.17;79.85
69980;BME280;57318;56.232;43.944;2024-01-11T06:36:50;96371.38;;;-13.17;79.62
69980;BME280;57318;56.232;43.944;2024-01-11T06:39:16;96333.75;;;-13.12;79.39
69980;BME280;57318;56.232;43.944;2024-01-11T06:41:42;96367.75;;;-13.10;79.67
69980;BME280;57318;56.232;43.944;2024-01-11T06:44:07;96367.69;;;-13.09;79.79
69980;BME280;57318;56.232;43.944;2024-01-11T06:46:33;96350.56;;;-13.07;79.65
69980;BME280;57318;56.232;43.944;2024-01-11T06:48:59;96342.84;;;-13.05;79.61
69980;BME280;57318;56.232;43.944;2024-01-11T06:51:24;96345.34;;;-13.03;79.45
69980;BME280;57318;56.232;43.944;2024-01-11T06:53:51;96336.81;;;-13.02;79.68
69980;BME280;57318;56.232;43.944;2024-01-11T06:56:17;96333.28;;;-13.00;79.94
69980;BME280;57318;56.232;43.944;2024-01-11T06:58:44;96324.84;;;-13.02;79.39
69980;BME280;57318;56.232;43.944;2024-01-11T07:01:11;96334.03;;;-12.96;79.79
69980;BME280;57318;56.232;43.944;2024-01-11T07:03:37;96319.41;;;-12.93;79.90
69980;BME280;57318;56.232;43.944;2024-01-11T07:06:03;96315.13;;;-12.92;79.53
69980;BME280;57318;56.232;43.944;2024-01-11T07:08:30;96303.06;;;-12.89;79.48
69980;BME280;57318;56.232;43.944;2024-01-11T07:10:55;96318.13;;;-12.81;79.57
69980;BME280;57318;56.232;43.944;2024-01-11T07:13:22;96302.53;;;-12.75;79.35
69980;BME280;57318;56.232;43.944;2024-01-11T07:15:47;96297.31;;;-12.72;79.62
69980;BME280;57318;56.232;43.944;2024-01-11T07:18:14;96282.75;;;-12.69;79.62
69980;BME280;57318;56.232;43.944;2024-01-11T07:20:40;96282.63;;;-12.66;79.72
69980;BME280;57318;56.232;43.944;2024-01-11T07:23:06;96290.31;;;-12.66;79.51
69980;BME280;57318;56.232;43.944;2024-01-11T07:25:32;96282.69;;;-12.68;79.21
69980;BME280;57318;56.232;43.944;2024-01-11T07:28:00;96285.84;;;-12.61;79.66
69980;BME280;57318;56.232;43.944;2024-01-11T07:30:26;96255.84;;;-12.58;79.75
69980;BME280;57318;56.232;43.944;2024-01-11T07:32:51;96271.88;;;-12.53;79.31
69980;BME280;57318;56.232;43.944;2024-01-11T07:35:17;96260.56;;;-12.47;79.13
69980;BME280;57318;56.232;43.944;2024-01-11T07:37:43;96259.63;;;-12.44;79.26
69980;BME280;57318;56.232;43.944;2024-01-11T07:40:09;96262.94;;;-12.42;79.24
69980;BME280;57318;56.232;43.944;2024-01-11T07:42:37;96245.03;;;-12.42;79.31
69980;BME280;57318;56.232;43.944;2024-01-11T07:45:05;96256.09;;;-12.42;79.09
69980;BME280;57318;56.232;43.944;2024-01-11T07:47:31;96234.66;;;-12.39;79.29
69980;BME280;57318;56.232;43.944;2024-01-11T07:49:57;96243.97;;;-12.37;79.48
69980;BME280;57318;56.232;43.944;2024-01-11T07:52:23;96208.00;;;-12.33;79.23
69980;BME280;57318;56.232;43.944;2024-01-11T07:54:48;96207.72;;;-12.26;79.34
69980;BME280;57318;56.232;43.944;2024-01-11T07:57:14;96195.34;;;-12.16;79.17
69980;BME280;57318;56.232;43.944;2024-01-11T07:59:40;96200.91;;;-12.06;78.52
69980;BME280;57318;56.232;43.944;2024-01-11T08:02:06;96187.72;;;-11.97;78.68
69980;BME280;57318;56.232;43.944;2024-01-11T08:04:33;96192.78;;;-11.95;78.56
69980;BME280;57318;56.232;43.944;2024-01-11T08:06:58;96162.88;;;-11.95;77.96
69980;BME280;57318;56.232;43.944;2024-01-11T08:09:28;96204.19;;;-11.84;78.25
69980;BME280;57318;56.232;43.944;2024-01-11T08:11:53;96184.00;;;-11.71;77.52
69980;BME280;57318;56.232;43.944;2024-01-11T08:14:22;96174.53;;;-11.69;77.54
69980;BME280;57318;56.232;43.944;2024-01-11T08:16:49;96177.63;;;-11.62;77.51
69980;BME280;57318;56.232;43.944;2024-01-11T08:19:15;96172.66;;;-11.65;77.34
69980;BME280;57318;56.232;43.944;2024-01-11T08:21:42;96159.03;;;-11.66;77.13
69980;BME280;57318;56.232;43.944;2024-01-11T08:24:08;96162.53;;;-11.68;77.19
69980;BME280;57318;56.232;43.944;2024-01-11T08:26:34;96174.78;;;-11.75;77.88
69980;BME280;57318;56.232;43.944;2024-01-11T08:29:00;96172.38;;;-11.78;77.72
69980;BME280;57318;56.232;43.944;2024-01-11T08:31:26;96118.94;;;-11.86;77.37
69980;BME280;57318;56.232;43.944;2024-01-11T08:33:53;96149.59;;;-11.84;78.22
69980;BME280;57318;56.232;43.944;2024-01-11T08:36:18;96126.69;;;-11.87;78.47
69980;BME280;57318;56.232;43.944;2024-01-11T08:38:44;96162.44;;;-11.86;78.20
69980;BME280;57318;56.232;43.944;2024-01-11T08:41:10;96152.00;;;-11.81;78.94
69980;BME280;57318;56.232;43.944;2024-01-11T08:43:35;96137.53;;;-11.82;78.74
69980;BME280;57318;56.232;43.944;2024-01-11T08:46:01;96129.84;;;-11.82;78.73
69980;BME280;57318;56.232;43.944;2024-01-11T08:48:27;96110.97;;;-11.80;78.75
69980;BME280;57318;56.232;43.944;2024-01-11T08:50:53;96116.50;;;-11.70;78.98
69980;BME280;57318;56.232;43.944;2024-01-11T08:53:19;96118.03;;;-11.66;78.82
69980;BME280;57318;56.232;43.944;2024-01-11T08:55:45;96109.31;;;-11.62;78.57
69980;BME280;57318;56.232;43.944;2024-01-11T08:58:11;96109.03;;;-11.55;78.72
69980;BME280;57318;56.232;43.944;2024-01-11T09:00:37;96097.47;;;-11.45;78.51
69980;BME280;57318;56.232;43.944;2024-01-11T09:03:03;96111.03;;;-11.43;77.96
69980;BME280;57318;56.232;43.944;2024-01-11T09:05:29;96101.56;;;-11.41;78.24
69980;BME280;57318;56.232;43.944;2024-01-11T09:07:55;96092.66;;;-11.34;78.24
69980;BME280;57318;56.232;43.944;2024-01-11T09:10:20;96107.16;;;-11.33;77.75
69980;BME280;57318;56.232;43.944;2024-01-11T09:12:46;96096.97;;;-11.34;77.89
69980;BME280;57318;56.232;43.944;2024-01-11T09:15:12;96089.63;;;-11.42;78.07
69980;BME280;57318;56.232;43.944;2024-01-11T09:17:38;96087.22;;;-11.45;78.76
69980;BME280;57318;56.232;43.944;2024-01-11T09:20:04;96104.47;;;-11.49;78.80
69980;BME280;57318;56.232;43.944;2024-01-11T09:22:30;96085.47;;;-11.45;79.01
69980;BME280;57318;56.232;43.944;2024-01-11T09:24:56;96080.22;;;-11.41;78.97
69980;BME280;57318;56.232;43.944;2024-01-11T09:27:21;96074.13;;;-11.39;79.10
69980;BME280;57318;56.232;43.944;2024-01-11T09:29:47;96061.84;;;-11.32;79.20
69980;BME280;57318;56.232;43.944;2024-01-11T09:32:13;96061.56;;;-11.26;79.01
69980;BME280;57318;56.232;43.944;2024-01-11T09:34:39;96061.94;;;-11.16;79.03
69980;BME280;57318;56.232;43.944;2024-01-11T09:37:05;96076.44;;;-11.15;79.06
69980;BME280;57318;56.232;43.944;2024-01-11T09:39:31;96063.31;;;-11.09;79.16
69980;BME280;57318;56.232;43.944;2024-01-11T09:41:59;96067.16;;;-11.00;79.26
69980;BME280;57318;56.232;43.944;2024-01-11T09:44:30;96072.13;;;-10.97;79.26
69980;BME280;57318;56.232;43.944;2024-01-11T09:46:57;96069.44;;;-10.94;79.35
69980;BME280;57318;56.232;43.944;2024-01-11T09:49:24;96066.13;;;-10.96;78.91
69980;BME280;57318;56.232;43.944;2024-01-11T09:51:50;96064.28;;;-10.94;79.22
69980;BME280;57318;56.232;43.944;2024-01-11T09:54:19;96063.47;;;-10.95;79.03
69980;BME280;57318;56.232;43.944;2024-01-11T09:56:46;96067.78;;;-10.95;79.19
69980;BME280;57318;56.232;43.944;2024-01-11T09:59:16;96060.03;;;-10.94;79.52
69980;BME280;57318;56.232;43.944;2024-01-11T10:01:44;96046.28;;;-10.93;79.40
69980;BME280;57318;56.232;43.944;2024-01-11T10:04:09;96052.91;;;-10.89;79.53
69980;BME280;57318;56.232;43.944;2024-01-11T10:06:38;96047.56;;;-10.84;79.54
69980;BME280;57318;56.232;43.944;2024-01-11T10:09:04;96055.19;;;-10.82;79.31
69980;BME280;57318;56.232;43.944;2024-01-11T10:11:30;96061.81;;;-10.78;79.70
69980;BME280;57318;56.232;43.944;2024-01-11T10:13:57;96042.00;;;-10.75;79.55
69980;BME280;57318;56.232;43.944;2024-01-11T10:16:24;96050.34;;;-10.71;79.80
69980;BME280;57318;56.232;43.944;2024-01-11T10:18:53;96051.88;;;-10.67;79.99
69980;BME280;57318;56.232;43.944;2024-01-11T10:21:19;96049.91;;;-10.62;79.99
69980;BME280;57318;56.232;43.944;2024-01-11T10:23:45;96039.41;;;-10.57;80.03
69980;BME280;57318;56.232;43.944;2024-01-11T10:26:11;96041.75;;;-10.53;80.03
69980;BME280;57318;56.232;43.944;2024-01-11T10:28:39;96034.78;;;-10.50;79.69
69980;BME280;57318;56.232;43.944;2024-01-11T10:31:05;96039.53;;;-10.43;79.83
69980;BME280;57318;56.232;43.944;2024-01-11T10:33:34;96045.94;;;-10.34;80.25
69980;BME280;57318;56.232;43.944;2024-01-11T10:36:01;96044.75;;;-10.28;80.12
69980;BME280;57318;56.232;43.944;2024-01-11T10:38:30;96043.59;;;-10.23;80.34
69980;BME280;57318;56.232;43.944;2024-01-11T10:40:59;96046.44;;;-10.11;80.05
69980;BME280;57318;56.232;43.944;2024-01-11T10:43:36;96045.88;;;-10.01;80.04
69980;BME280;57318;56.232;43.944;2024-01-11T10:46:12;96054.81;;;-9.92;80.04
69980;BME280;57318;56.232;43.944;2024-01-11T10:48:44;96046.72;;;-9.84;80.35
69980;BME280;57318;56.232;43.944;2024-01-11T10:51:20;96044.44;;;-9.73;80.07
69980;BME280;57318;56.232;43.944;2024-01-11T10:53:51;96047.31;;;-9.63;79.70
69980;BME280;57318;56.232;43.944;2024-01-11T10:56:20;96043.94;;;-9.48;79.98
69980;BME280;57318;56.232;43.944;2024-01-11T10:58:47;96030.28;;;-9.34;80.05
69980;BME280;57318;56.232;43.944;2024-01-11T11:01:17;96037.41;;;-9.23;80.02
69980;BME280;57318;56.232;43.944;2024-01-11T11:03:45;96041.13;;;-9.13;79.87
69980;BME280;57318;56.232;43.944;2024-01-11T11:06:11;96041.78;;;-9.09;79.22
69980;BME280;57318;56.232;43.944;2024-01-11T11:08:38;96046.84;;;-9.08;79.49
69980;BME280;57318;56.232;43.944;2024-01-11T11:11:05;96038.78;;;-9.01;79.47
69980;BME280;57318;56.232;43.944;2024-01-11T11:13:32;96042.00;;;-8.98;79.46
69980;BME280;57318;56.232;43.944;2024-01-11T11:16:00;96044.16;;;-8.90;79.13
69980;BME280;57318;56.232;43.944;2024-01-11T11:18:28;96040.97;;;-8.79;79.21
69980;BME280;57318;56.232;43.944;2024-01-11T11:20:53;96038.31;;;-8.78;79.43
69980;BME280;57318;56.232;43.944;2024-01-11T11:23:19;96044.28;;;-8.77;78.99
69980;BME280;57318;56.232;43.944;2024-01-11T11:25:46;96045.84;;;-8.75;79.33
69980;BME280;57318;56.232;43.944;2024-01-11T11:28:15;96045.22;;;-8.64;79.46
69980;BME280;57318;56.232;43.944;2024-01-11T11:30:42;96034.28;;;-8.67;78.35
69980;BME280;57318;56.232;43.944;2024-01-11T11:33:17;96033.94;;;-8.61;78.62
69980;BME280;57318;56.232;43.944;2024-01-11T11:35:48;96046.22;;;-8.66;77.98
69980;BME280;57318;56.232;43.944;2024-01-11T11:38:21;96051.19;;;-8.63;78.50
69980;BME280;57318;56.232;43.944;2024-01-11T11:40:48;96048.06;;;-8.68;77.95
69980;BME280;57318;56.232;43.944;2024-01-11T11:43:16;96051.25;;;-8.79;77.59
69980;BME280;57318;56.232;43.944;2024-01-11T11:45:44;96050.56;;;-8.67;77.30
69980;BME280;57318;56.232;43.944;2024-01-11T11:53:34;96051.50;;;-8.54;75.41
69980;BME280;57318;56.232;43.944;2024-01-11T11:56:00;96056.94;;;-8.44;76.83
69980;BME280;57318;56.232;43.944;2024-01-11T11:58:28;96052.06;;;-8.48;76.53
69980;BME280;57318;56.232;43.944;2024-01-11T12:00:55;96057.78;;;-8.43;77.47
69980;BME280;57318;56.232;43.944;2024-01-11T12:03:26;96071.56;;;-8.44;77.51
69980;BME280;57318;56.232;43.944;2024-01-11T12:05:54;96059.88;;;-8.50;77.54
69980;BME280;57318;56.232;43.944;2024-01-11T12:08:21;96084.69;;;-8.49;77.77
69980;BME280;57318;56.232;43.944;2024-01-11T12:10:47;96080.44;;;-8.64;77.37
69980;BME280;57318;56.232;43.944;2024-01-11T12:13:13;96077.03;;;-8.65;77.73
69980;BME280;57318;56.232;43.944;2024-01-11T12:15:38;96077.19;;;-8.68;77.92
69980;BME280;57318;56.232;43.944;2024-01-11T12:18:05;96080.88;;;-8.72;77.91
69980;BME280;57318;56.232;43.944;2024-01-11T12:20:34;96087.75;;;-8.73;78.03
69980;BME280;57318;56.232;43.944;2024-01-11T12:23:03;96102.81;;;-8.81;78.25
69980;BME280;57318;56.232;43.944;2024-01-11T12:25:30;96088.28;;;-8.82;78.67
69980;BME280;57318;56.232;43.944;2024-01-11T12:27:56;96090.28;;;-8.87;78.71
69980;BME280;57318;56.232;43.944;2024-01-11T12:30:23;96090.97;;;-8.99;78.71
69980;BME280;57318;56.232;43.944;2024-01-11T12:32:50;96095.13;;;-8.97;78.68
69980;BME280;57318;56.232;43.944;2024-01-11T12:35:16;96092.56;;;-9.13;78.61
69980;BME280;57318;56.232;43.944;2024-01-11T12:38:03;96103.59;;;-9.11;79.06
69980;BME280;57318;56.232;43.944;2024-01-11T12:40:35;96111.97;;;-9.07;79.03
69980;BME280;57318;56.232;43.944;2024-01-11T12:43:06;96113.16;;;-9.13;78.83